sensor_id;sensor_type;location;lat;lon;timestamp;P1;durP1;ratioP1;P2;durP2;ratioP2
75148;SDS011;63724;47.470;19.166;2023-04-23T00:02:32;9.13;;;6.30;;
75148;SDS011;63724;47.470;19.166;2023-04-23T00:05:35;13.05;;;6.47;;
75148;SDS011;63724;47.470;19.166;2023-04-23T00:08:39;10.77;;;7.53;;
75148;SDS011;63724;47.470;19.166;2023-04-23T00:11:43;11.70;;;6.83;;
75148;SDS011;63724;47.470;19.166;2023-04-23T00:14:45;9.70;;;6.40;;
75148;SDS011;63724;47.470;19.166;2023-04-23T00:17:48;12.15;;;6.90;;
75148;SDS011;63724;47.470;19.166;2023-04-23T00:20:51;9.23;;;6.07;;
75148;SDS011;63724;47.470;19.166;2023-04-23T00:23:55;9.20;;;6.80;;
75148;SDS011;63724;47.470;19.166;2023-04-23T00:26:57;13.30;;;6.70;;
75148;SDS011;63724;47.470;19.166;2023-04-23T00:30:02;9.85;;;6.00;;
75148;SDS011;63724;47.470;19.166;2023-04-23T00:33:05;11.60;;;6.75;;
75148;SDS011;63724;47.470;19.166;2023-04-23T00:36:07;8.23;;;6.57;;
75148;SDS011;63724;47.470;19.166;2023-04-23T00:39:10;9.93;;;6.40;;
75148;SDS011;63724;47.470;19.166;2023-04-23T00:42:12;11.43;;;6.40;;
75148;SDS011;63724;47.470;19.166;2023-04-23T00:45:16;13.77;;;6.72;;
75148;SDS011;63724;47.470;19.166;2023-04-23T00:48:19;10.82;;;6.47;;
75148;SDS011;63724;47.470;19.166;2023-04-23T00:51:22;13.23;;;7.18;;
75148;SDS011;63724;47.470;19.166;2023-04-23T00:54:25;9.23;;;6.50;;
75148;SDS011;63724;47.470;19.166;2023-04-23T00:57:28;9.47;;;6.20;;
75148;SDS011;63724;47.470;19.166;2023-04-23T01:00:31;11.55;;;6.60;;
75148;SDS011;63724;47.470;19.166;2023-04-23T01:03:36;10.43;;;6.65;;
75148;SDS011;63724;47.470;19.166;2023-04-23T01:06:40;13.07;;;7.30;;
75148;SDS011;63724;47.470;19.166;2023-04-23T01:09:45;9.97;;;7.37;;
75148;SDS011;63724;47.470;19.166;2023-04-23T01:12:47;9.40;;;6.03;;
75148;SDS011;63724;47.470;19.166;2023-04-23T01:15:50;13.30;;;7.50;;
75148;SDS011;63724;47.470;19.166;2023-04-23T01:18:53;13.07;;;7.32;;
75148;SDS011;63724;47.470;19.166;2023-04-23T01:21:57;9.70;;;6.80;;
75148;SDS011;63724;47.470;19.166;2023-04-23T01:25:02;10.80;;;6.57;;
75148;SDS011;63724;47.470;19.166;2023-04-23T01:28:05;10.13;;;6.70;;
75148;SDS011;63724;47.470;19.166;2023-04-23T01:31:07;14.02;;;7.10;;
75148;SDS011;63724;47.470;19.166;2023-04-23T01:34:10;10.95;;;6.60;;
75148;SDS011;63724;47.470;19.166;2023-04-23T01:37:13;11.75;;;7.00;;
75148;SDS011;63724;47.470;19.166;2023-04-23T01:40:17;8.37;;;6.40;;
75148;SDS011;63724;47.470;19.166;2023-04-23T01:43:20;12.00;;;6.23;;
75148;SDS011;63724;47.470;19.166;2023-04-23T01:46:24;10.35;;;7.15;;
75148;SDS011;63724;47.470;19.166;2023-04-23T01:49:27;9.52;;;6.70;;
75148;SDS011;63724;47.470;19.166;2023-04-23T01:52:29;9.38;;;6.40;;
75148;SDS011;63724;47.470;19.166;2023-04-23T01:55:32;10.23;;;6.53;;
75148;SDS011;63724;47.470;19.166;2023-04-23T01:58:35;12.60;;;6.67;;
75148;SDS011;63724;47.470;19.166;2023-04-23T02:01:41;11.90;;;6.70;;
75148;SDS011;63724;47.470;19.166;2023-04-23T02:04:45;10.90;;;6.63;;
75148;SDS011;63724;47.470;19.166;2023-04-23T02:07:50;9.70;;;6.55;;
75148;SDS011;63724;47.470;19.166;2023-04-23T02:10:52;8.83;;;6.07;;
75148;SDS011;63724;47.470;19.166;2023-04-23T02:13:55;13.17;;;6.70;;
75148;SDS011;63724;47.470;19.166;2023-04-23T02:16:57;12.10;;;6.80;;
75148;SDS011;63724;47.470;19.166;2023-04-23T02:20:00;11.98;;;6.85;;
75148;SDS011;63724;47.470;19.166;2023-04-23T02:23:03;13.57;;;6.93;;
75148;SDS011;63724;47.470;19.166;2023-04-23T02:26:05;12.50;;;7.00;;
75148;SDS011;63724;47.470;19.166;2023-04-23T02:29:08;12.53;;;7.10;;
75148;SDS011;63724;47.470;19.166;2023-04-23T02:32:11;10.52;;;6.70;;
75148;SDS011;63724;47.470;19.166;2023-04-23T02:35:14;11.85;;;7.78;;
75148;SDS011;63724;47.470;19.166;2023-04-23T02:38:16;12.85;;;7.47;;
75148;SDS011;63724;47.470;19.166;2023-04-23T02:41:18;10.93;;;7.00;;
75148;SDS011;63724;47.470;19.166;2023-04-23T02:44:21;11.60;;;7.60;;
75148;SDS011;63724;47.470;19.166;2023-04-23T02:47:23;9.73;;;6.85;;
75148;SDS011;63724;47.470;19.166;2023-04-23T02:50:25;10.02;;;6.13;;
75148;SDS011;63724;47.470;19.166;2023-04-23T02:53:28;10.60;;;6.72;;
75148;SDS011;63724;47.470;19.166;2023-04-23T02:56:30;15.17;;;7.03;;
75148;SDS011;63724;47.470;19.166;2023-04-23T02:59:33;11.13;;;6.70;;
75148;SDS011;63724;47.470;19.166;2023-04-23T03:02:35;11.40;;;6.80;;
75148;SDS011;63724;47.470;19.166;2023-04-23T03:05:38;10.48;;;6.57;;
75148;SDS011;63724;47.470;19.166;2023-04-23T03:08:40;12.13;;;6.97;;
75148;SDS011;63724;47.470;19.166;2023-04-23T03:11:43;11.27;;;7.03;;
75148;SDS011;63724;47.470;19.166;2023-04-23T03:14:47;11.60;;;7.20;;
75148;SDS011;63724;47.470;19.166;2023-04-23T03:17:50;13.00;;;6.70;;
75148;SDS011;63724;47.470;19.166;2023-04-23T03:20:54;10.23;;;6.15;;
75148;SDS011;63724;47.470;19.166;2023-04-23T03:23:57;10.38;;;6.70;;
75148;SDS011;63724;47.470;19.166;2023-04-23T03:27:00;9.67;;;6.47;;
75148;SDS011;63724;47.470;19.166;2023-04-23T03:30:02;9.67;;;6.30;;
75148;SDS011;63724;47.470;19.166;2023-04-23T03:33:05;16.00;;;7.05;;
75148;SDS011;63724;47.470;19.166;2023-04-23T03:36:08;10.70;;;6.25;;
75148;SDS011;63724;47.470;19.166;2023-04-23T03:39:11;11.07;;;6.07;;
75148;SDS011;63724;47.470;19.166;2023-04-23T03:42:23;10.50;;;6.73;;
75148;SDS011;63724;47.470;19.166;2023-04-23T03:45:28;10.90;;;5.93;;
75148;SDS011;63724;47.470;19.166;2023-04-23T03:48:32;10.07;;;6.68;;
75148;SDS011;63724;47.470;19.166;2023-04-23T03:51:38;12.52;;;7.07;;
75148;SDS011;63724;47.470;19.166;2023-04-23T03:54:42;9.35;;;6.05;;
75148;SDS011;63724;47.470;19.166;2023-04-23T03:57:48;9.77;;;6.20;;
75148;SDS011;63724;47.470;19.166;2023-04-23T04:00:56;9.80;;;6.77;;
75148;SDS011;63724;47.470;19.166;2023-04-23T04:03:59;10.02;;;6.40;;
75148;SDS011;63724;47.470;19.166;2023-04-23T04:07:02;11.32;;;6.47;;
75148;SDS011;63724;47.470;19.166;2023-04-23T04:10:04;8.52;;;6.40;;
75148;SDS011;63724;47.470;19.166;2023-04-23T04:13:07;11.13;;;6.43;;
75148;SDS011;63724;47.470;19.166;2023-04-23T04:16:09;8.97;;;6.90;;
75148;SDS011;63724;47.470;19.166;2023-04-23T04:19:12;9.82;;;6.40;;
75148;SDS011;63724;47.470;19.166;2023-04-23T04:22:14;11.65;;;6.53;;
75148;SDS011;63724;47.470;19.166;2023-04-23T04:25:17;10.73;;;6.70;;
75148;SDS011;63724;47.470;19.166;2023-04-23T04:28:19;9.27;;;6.87;;
75148;SDS011;63724;47.470;19.166;2023-04-23T04:31:22;13.23;;;6.60;;
75148;SDS011;63724;47.470;19.166;2023-04-23T04:34:25;9.95;;;6.35;;
75148;SDS011;63724;47.470;19.166;2023-04-23T04:37:28;12.00;;;6.85;;
75148;SDS011;63724;47.470;19.166;2023-04-23T04:40:32;11.93;;;7.03;;
75148;SDS011;63724;47.470;19.166;2023-04-23T04:43:35;12.03;;;6.70;;
75148;SDS011;63724;47.470;19.166;2023-04-23T04:46:38;11.57;;;7.03;;
75148;SDS011;63724;47.470;19.166;2023-04-23T04:49:41;12.13;;;6.97;;
75148;SDS011;63724;47.470;19.166;2023-04-23T04:52:44;15.25;;;7.00;;
75148;SDS011;63724;47.470;19.166;2023-04-23T04:55:46;14.10;;;7.38;;
75148;SDS011;63724;47.470;19.166;2023-04-23T04:58:48;15.47;;;8.67;;
75148;SDS011;63724;47.470;19.166;2023-04-23T05:01:51;18.43;;;10.10;;
75148;SDS011;63724;47.470;19.166;2023-04-23T05:04:53;17.77;;;9.10;;
75148;SDS011;63724;47.470;19.166;2023-04-23T05:07:56;20.30;;;9.65;;
75148;SDS011;63724;47.470;19.166;2023-04-23T05:11:00;19.65;;;9.00;;
75148;SDS011;63724;47.470;19.166;2023-04-23T05:14:03;17.00;;;9.13;;
75148;SDS011;63724;47.470;19.166;2023-04-23T05:17:05;14.50;;;7.93;;
75148;SDS011;63724;47.470;19.166;2023-04-23T05:20:08;14.48;;;7.63;;
75148;SDS011;63724;47.470;19.166;2023-04-23T05:23:14;15.98;;;7.90;;
75148;SDS011;63724;47.470;19.166;2023-04-23T05:26:17;13.48;;;7.35;;
75148;SDS011;63724;47.470;19.166;2023-04-23T05:29:19;14.07;;;7.20;;
75148;SDS011;63724;47.470;19.166;2023-04-23T05:32:21;13.33;;;7.23;;
75148;SDS011;63724;47.470;19.166;2023-04-23T05:35:24;10.05;;;6.38;;
75148;SDS011;63724;47.470;19.166;2023-04-23T05:38:26;14.80;;;6.80;;
75148;SDS011;63724;47.470;19.166;2023-04-23T05:41:29;10.07;;;6.05;;
75148;SDS011;63724;47.470;19.166;2023-04-23T05:44:31;15.73;;;6.10;;
75148;SDS011;63724;47.470;19.166;2023-04-23T05:47:33;10.83;;;6.77;;
75148;SDS011;63724;47.470;19.166;2023-04-23T05:50:36;12.07;;;6.72;;
75148;SDS011;63724;47.470;19.166;2023-04-23T05:53:38;9.00;;;6.45;;
75148;SDS011;63724;47.470;19.166;2023-04-23T05:56:40;12.93;;;6.18;;
75148;SDS011;63724;47.470;19.166;2023-04-23T05:59:43;9.77;;;6.33;;
75148;SDS011;63724;47.470;19.166;2023-04-23T06:02:45;10.17;;;6.00;;
75148;SDS011;63724;47.470;19.166;2023-04-23T06:05:48;7.22;;;5.80;;
75148;SDS011;63724;47.470;19.166;2023-04-23T06:08:51;12.70;;;6.30;;
75148;SDS011;63724;47.470;19.166;2023-04-23T06:11:53;13.40;;;5.88;;
75148;SDS011;63724;47.470;19.166;2023-04-23T06:14:56;10.23;;;5.97;;
75148;SDS011;63724;47.470;19.166;2023-04-23T06:17:58;11.70;;;6.17;;
75148;SDS011;63724;47.470;19.166;2023-04-23T06:21:01;11.32;;;5.78;;
75148;SDS011;63724;47.470;19.166;2023-04-23T06:24:05;11.02;;;6.00;;
75148;SDS011;63724;47.470;19.166;2023-04-23T06:27:09;8.13;;;5.80;;
75148;SDS011;63724;47.470;19.166;2023-04-23T06:30:16;9.93;;;5.63;;
75148;SDS011;63724;47.470;19.166;2023-04-23T06:33:19;8.87;;;5.30;;
75148;SDS011;63724;47.470;19.166;2023-04-23T06:36:21;8.93;;;5.45;;
75148;SDS011;63724;47.470;19.166;2023-04-23T06:39:24;6.93;;;5.30;;
75148;SDS011;63724;47.470;19.166;2023-04-23T06:42:26;8.18;;;5.15;;
75148;SDS011;63724;47.470;19.166;2023-04-23T06:45:51;9.37;;;5.33;;
75148;SDS011;63724;47.470;19.166;2023-04-23T06:48:54;15.50;;;5.50;;
75148;SDS011;63724;47.470;19.166;2023-04-23T06:51:56;10.98;;;5.38;;
75148;SDS011;63724;47.470;19.166;2023-04-23T06:54:59;7.43;;;5.53;;
75148;SDS011;63724;47.470;19.166;2023-04-23T06:58:01;8.60;;;5.30;;
75148;SDS011;63724;47.470;19.166;2023-04-23T07:01:04;9.50;;;5.80;;
75148;SDS011;63724;47.470;19.166;2023-04-23T07:04:09;10.90;;;5.47;;
75148;SDS011;63724;47.470;19.166;2023-04-23T07:07:12;9.68;;;4.93;;
75148;SDS011;63724;47.470;19.166;2023-04-23T07:10:14;8.52;;;4.93;;
75148;SDS011;63724;47.470;19.166;2023-04-23T07:13:18;10.85;;;5.00;;
75148;SDS011;63724;47.470;19.166;2023-04-23T07:16:21;5.87;;;4.40;;
75148;SDS011;63724;47.470;19.166;2023-04-23T07:19:24;9.00;;;5.00;;
75148;SDS011;63724;47.470;19.166;2023-04-23T07:22:28;5.55;;;4.32;;
75148;SDS011;63724;47.470;19.166;2023-04-23T07:25:31;6.07;;;3.90;;
75148;SDS011;63724;47.470;19.166;2023-04-23T07:28:33;6.25;;;4.13;;
75148;SDS011;63724;47.470;19.166;2023-04-23T07:31:36;10.07;;;4.10;;
75148;SDS011;63724;47.470;19.166;2023-04-23T07:34:40;6.57;;;3.97;;
75148;SDS011;63724;47.470;19.166;2023-04-23T07:37:43;5.93;;;3.85;;
75148;SDS011;63724;47.470;19.166;2023-04-23T07:40:45;6.25;;;3.80;;
75148;SDS011;63724;47.470;19.166;2023-04-23T07:43:48;6.82;;;3.70;;
75148;SDS011;63724;47.470;19.166;2023-04-23T07:46:50;5.60;;;3.77;;
75148;SDS011;63724;47.470;19.166;2023-04-23T07:49:53;5.20;;;3.47;;
75148;SDS011;63724;47.470;19.166;2023-04-23T07:52:55;4.63;;;3.45;;
75148;SDS011;63724;47.470;19.166;2023-04-23T07:55:58;7.00;;;4.05;;
75148;SDS011;63724;47.470;19.166;2023-04-23T07:59:01;6.60;;;4.03;;
75148;SDS011;63724;47.470;19.166;2023-04-23T08:02:06;7.13;;;4.27;;
75148;SDS011;63724;47.470;19.166;2023-04-23T08:05:08;7.07;;;3.70;;
75148;SDS011;63724;47.470;19.166;2023-04-23T08:08:11;6.97;;;4.10;;
75148;SDS011;63724;47.470;19.166;2023-04-23T08:11:13;7.03;;;3.65;;
75148;SDS011;63724;47.470;19.166;2023-04-23T08:14:16;5.03;;;3.40;;
75148;SDS011;63724;47.470;19.166;2023-04-23T08:17:19;5.33;;;3.57;;
75148;SDS011;63724;47.470;19.166;2023-04-23T08:20:21;12.53;;;4.10;;
75148;SDS011;63724;47.470;19.166;2023-04-23T08:23:24;6.57;;;3.33;;
75148;SDS011;63724;47.470;19.166;2023-04-23T08:26:27;4.68;;;3.22;;
75148;SDS011;63724;47.470;19.166;2023-04-23T08:29:29;5.55;;;3.15;;
75148;SDS011;63724;47.470;19.166;2023-04-23T08:32:31;6.60;;;3.27;;
75148;SDS011;63724;47.470;19.166;2023-04-23T08:35:34;4.53;;;3.23;;
75148;SDS011;63724;47.470;19.166;2023-04-23T08:38:37;6.30;;;3.05;;
75148;SDS011;63724;47.470;19.166;2023-04-23T08:41:40;5.85;;;3.03;;
75148;SDS011;63724;47.470;19.166;2023-04-23T08:44:44;4.15;;;3.30;;
75148;SDS011;63724;47.470;19.166;2023-04-23T08:47:49;6.60;;;3.23;;
75148;SDS011;63724;47.470;19.166;2023-04-23T08:50:51;5.33;;;3.20;;
75148;SDS011;63724;47.470;19.166;2023-04-23T08:53:55;7.35;;;3.20;;
75148;SDS011;63724;47.470;19.166;2023-04-23T08:56:59;5.65;;;3.22;;
75148;SDS011;63724;47.470;19.166;2023-04-23T09:00:03;4.93;;;3.05;;
75148;SDS011;63724;47.470;19.166;2023-04-23T09:03:07;6.33;;;3.37;;
75148;SDS011;63724;47.470;19.166;2023-04-23T09:06:10;6.00;;;2.83;;
75148;SDS011;63724;47.470;19.166;2023-04-23T09:09:14;6.95;;;3.08;;
75148;SDS011;63724;47.470;19.166;2023-04-23T09:12:17;5.22;;;3.50;;
75148;SDS011;63724;47.470;19.166;2023-04-23T09:15:19;5.90;;;3.42;;
75148;SDS011;63724;47.470;19.166;2023-04-23T09:18:22;6.83;;;3.80;;
75148;SDS011;63724;47.470;19.166;2023-04-23T09:21:24;5.77;;;3.00;;
75148;SDS011;63724;47.470;19.166;2023-04-23T09:24:27;6.18;;;3.70;;
75148;SDS011;63724;47.470;19.166;2023-04-23T09:27:29;4.82;;;3.50;;
75148;SDS011;63724;47.470;19.166;2023-04-23T09:30:36;5.22;;;3.35;;
75148;SDS011;63724;47.470;19.166;2023-04-23T09:33:40;8.63;;;3.60;;
75148;SDS011;63724;47.470;19.166;2023-04-23T09:36:42;6.10;;;3.20;;
75148;SDS011;63724;47.470;19.166;2023-04-23T09:39:46;4.97;;;3.20;;
75148;SDS011;63724;47.470;19.166;2023-04-23T09:42:49;5.60;;;3.15;;
75148;SDS011;63724;47.470;19.166;2023-04-23T09:45:56;4.88;;;3.10;;
75148;SDS011;63724;47.470;19.166;2023-04-23T09:48:59;6.50;;;3.53;;
75148;SDS011;63724;47.470;19.166;2023-04-23T09:52:04;9.00;;;4.23;;
75148;SDS011;63724;47.470;19.166;2023-04-23T09:55:09;5.80;;;3.40;;
75148;SDS011;63724;47.470;19.166;2023-04-23T09:58:12;6.43;;;3.28;;
75148;SDS011;63724;47.470;19.166;2023-04-23T10:01:16;8.52;;;3.20;;
75148;SDS011;63724;47.470;19.166;2023-04-23T10:04:23;4.20;;;3.27;;
75148;SDS011;63724;47.470;19.166;2023-04-23T10:07:26;6.07;;;2.93;;
75148;SDS011;63724;47.470;19.166;2023-04-23T10:10:30;8.82;;;3.10;;
75148;SDS011;63724;47.470;19.166;2023-04-23T10:13:33;5.47;;;2.63;;
75148;SDS011;63724;47.470;19.166;2023-04-23T10:16:37;6.20;;;3.22;;
75148;SDS011;63724;47.470;19.166;2023-04-23T10:19:50;3.70;;;2.90;;
75148;SDS011;63724;47.470;19.166;2023-04-23T10:22:54;6.77;;;2.97;;
75148;SDS011;63724;47.470;19.166;2023-04-23T10:25:57;6.53;;;3.60;;
75148;SDS011;63724;47.470;19.166;2023-04-23T10:29:01;5.00;;;3.55;;
75148;SDS011;63724;47.470;19.166;2023-04-23T10:32:05;7.63;;;3.63;;
75148;SDS011;63724;47.470;19.166;2023-04-23T10:35:08;5.47;;;2.83;;
75148;SDS011;63724;47.470;19.166;2023-04-23T10:38:12;5.73;;;3.67;;
75148;SDS011;63724;47.470;19.166;2023-04-23T10:41:15;5.68;;;2.97;;
75148;SDS011;63724;47.470;19.166;2023-04-23T10:44:21;4.97;;;3.53;;
75148;SDS011;63724;47.470;19.166;2023-04-23T10:47:44;3.72;;;2.95;;
75148;SDS011;63724;47.470;19.166;2023-04-23T10:50:47;3.70;;;3.07;;
75148;SDS011;63724;47.470;19.166;2023-04-23T10:54:18;5.17;;;3.00;;
75148;SDS011;63724;47.470;19.166;2023-04-23T10:57:21;6.07;;;3.03;;
75148;SDS011;63724;47.470;19.166;2023-04-23T11:00:24;4.32;;;3.00;;
75148;SDS011;63724;47.470;19.166;2023-04-23T11:09:48;3.77;;;2.70;;
75148;SDS011;63724;47.470;19.166;2023-04-23T11:12:51;4.28;;;3.05;;
75148;SDS011;63724;47.470;19.166;2023-04-23T11:19:36;4.65;;;3.10;;
75148;SDS011;63724;47.470;19.166;2023-04-23T11:22:43;4.27;;;3.10;;
75148;SDS011;63724;47.470;19.166;2023-04-23T11:25:47;5.17;;;2.87;;
75148;SDS011;63724;47.470;19.166;2023-04-23T11:28:49;4.63;;;3.33;;
75148;SDS011;63724;47.470;19.166;2023-04-23T11:31:53;4.82;;;3.00;;
75148;SDS011;63724;47.470;19.166;2023-04-23T11:34:59;6.97;;;3.72;;
75148;SDS011;63724;47.470;19.166;2023-04-23T11:38:08;7.23;;;3.17;;
75148;SDS011;63724;47.470;19.166;2023-04-23T11:41:13;5.87;;;2.90;;
75148;SDS011;63724;47.470;19.166;2023-04-23T11:44:17;3.45;;;3.10;;
75148;SDS011;63724;47.470;19.166;2023-04-23T11:47:21;5.75;;;3.05;;
75148;SDS011;63724;47.470;19.166;2023-04-23T11:50:28;3.25;;;2.88;;
75148;SDS011;63724;47.470;19.166;2023-04-23T11:53:31;3.33;;;2.80;;
75148;SDS011;63724;47.470;19.166;2023-04-23T11:56:34;3.23;;;2.93;;
75148;SDS011;63724;47.470;19.166;2023-04-23T11:59:36;5.80;;;3.13;;
75148;SDS011;63724;47.470;19.166;2023-04-23T12:02:48;7.95;;;3.53;;
75148;SDS011;63724;47.470;19.166;2023-04-23T12:05:53;4.85;;;3.00;;
75148;SDS011;63724;47.470;19.166;2023-04-23T12:08:57;6.03;;;3.30;;
75148;SDS011;63724;47.470;19.166;2023-04-23T12:11:59;6.53;;;3.10;;
75148;SDS011;63724;47.470;19.166;2023-04-23T12:15:04;3.80;;;2.90;;
75148;SDS011;63724;47.470;19.166;2023-04-23T12:18:08;3.78;;;3.05;;
75148;SDS011;63724;47.470;19.166;2023-04-23T12:21:12;5.38;;;3.22;;
75148;SDS011;63724;47.470;19.166;2023-04-23T12:24:14;4.87;;;2.70;;
75148;SDS011;63724;47.470;19.166;2023-04-23T12:27:19;5.13;;;3.13;;
75148;SDS011;63724;47.470;19.166;2023-04-23T12:30:23;5.78;;;3.53;;
75148;SDS011;63724;47.470;19.166;2023-04-23T12:33:29;3.88;;;3.08;;
75148;SDS011;63724;47.470;19.166;2023-04-23T12:36:34;5.53;;;2.92;;
75148;SDS011;63724;47.470;19.166;2023-04-23T12:39:37;3.80;;;2.70;;
75148;SDS011;63724;47.470;19.166;2023-04-23T12:42:40;10.10;;;4.20;;
75148;SDS011;63724;47.470;19.166;2023-04-23T12:45:43;4.90;;;3.35;;
75148;SDS011;63724;47.470;19.166;2023-04-23T12:48:46;5.82;;;3.30;;
75148;SDS011;63724;47.470;19.166;2023-04-23T12:51:48;7.80;;;3.08;;
75148;SDS011;63724;47.470;19.166;2023-04-23T12:54:51;4.17;;;3.23;;
75148;SDS011;63724;47.470;19.166;2023-04-23T12:57:57;3.50;;;3.00;;
75148;SDS011;63724;47.470;19.166;2023-04-23T13:01:00;5.32;;;3.03;;
75148;SDS011;63724;47.470;19.166;2023-04-23T13:04:03;4.90;;;2.95;;
75148;SDS011;63724;47.470;19.166;2023-04-23T13:07:06;6.03;;;2.70;;
75148;SDS011;63724;47.470;19.166;2023-04-23T13:10:13;3.33;;;2.70;;
75148;SDS011;63724;47.470;19.166;2023-04-23T13:13:17;4.40;;;3.13;;
75148;SDS011;63724;47.470;19.166;2023-04-23T13:16:20;5.68;;;3.30;;
75148;SDS011;63724;47.470;19.166;2023-04-23T13:19:23;5.32;;;3.05;;
75148;SDS011;63724;47.470;19.166;2023-04-23T13:22:25;6.72;;;2.90;;
75148;SDS011;63724;47.470;19.166;2023-04-23T13:25:30;6.60;;;3.10;;
75148;SDS011;63724;47.470;19.166;2023-04-23T13:28:35;5.30;;;3.50;;
75148;SDS011;63724;47.470;19.166;2023-04-23T13:31:37;6.15;;;2.63;;
75148;SDS011;63724;47.470;19.166;2023-04-23T13:34:40;4.05;;;2.80;;
75148;SDS011;63724;47.470;19.166;2023-04-23T13:37:43;5.43;;;2.67;;
75148;SDS011;63724;47.470;19.166;2023-04-23T13:40:45;5.70;;;3.27;;
75148;SDS011;63724;47.470;19.166;2023-04-23T13:43:48;8.10;;;3.00;;
75148;SDS011;63724;47.470;19.166;2023-04-23T13:46:50;4.35;;;3.10;;
75148;SDS011;63724;47.470;19.166;2023-04-23T13:49:53;4.18;;;3.15;;
75148;SDS011;63724;47.470;19.166;2023-04-23T13:52:55;4.03;;;2.80;;
75148;SDS011;63724;47.470;19.166;2023-04-23T13:55:58;4.00;;;2.87;;
75148;SDS011;63724;47.470;19.166;2023-04-23T13:59:00;3.80;;;2.93;;
75148;SDS011;63724;47.470;19.166;2023-04-23T14:02:20;3.65;;;2.95;;
75148;SDS011;63724;47.470;19.166;2023-04-23T14:05:25;4.88;;;3.28;;
75148;SDS011;63724;47.470;19.166;2023-04-23T14:08:27;4.32;;;3.00;;
75148;SDS011;63724;47.470;19.166;2023-04-23T14:11:29;6.97;;;2.93;;
75148;SDS011;63724;47.470;19.166;2023-04-23T14:14:32;7.90;;;2.73;;
75148;SDS011;63724;47.470;19.166;2023-04-23T14:17:34;7.63;;;2.83;;
75148;SDS011;63724;47.470;19.166;2023-04-23T14:20:38;5.78;;;2.90;;
75148;SDS011;63724;47.470;19.166;2023-04-23T14:23:44;4.88;;;2.83;;
75148;SDS011;63724;47.470;19.166;2023-04-23T14:26:51;4.60;;;3.17;;
75148;SDS011;63724;47.470;19.166;2023-04-23T14:32:56;5.45;;;2.85;;
75148;SDS011;63724;47.470;19.166;2023-04-23T14:35:58;3.97;;;2.72;;
75148;SDS011;63724;47.470;19.166;2023-04-23T14:39:01;4.97;;;2.67;;
75148;SDS011;63724;47.470;19.166;2023-04-23T14:42:06;3.97;;;2.70;;
75148;SDS011;63724;47.470;19.166;2023-04-23T14:45:08;4.30;;;2.87;;
75148;SDS011;63724;47.470;19.166;2023-04-23T14:48:11;3.83;;;2.60;;
75148;SDS011;63724;47.470;19.166;2023-04-23T14:51:13;3.47;;;2.47;;
75148;SDS011;63724;47.470;19.166;2023-04-23T14:54:16;4.25;;;3.00;;
75148;SDS011;63724;47.470;19.166;2023-04-23T14:57:18;5.67;;;2.70;;
75148;SDS011;63724;47.470;19.166;2023-04-23T15:00:20;3.53;;;2.77;;
75148;SDS011;63724;47.470;19.166;2023-04-23T15:03:23;3.88;;;2.80;;
75148;SDS011;63724;47.470;19.166;2023-04-23T15:06:27;6.47;;;2.33;;
75148;SDS011;63724;47.470;19.166;2023-04-23T15:09:30;3.03;;;2.72;;
75148;SDS011;63724;47.470;19.166;2023-04-23T15:12:36;3.57;;;2.70;;
75148;SDS011;63724;47.470;19.166;2023-04-23T15:15:54;4.17;;;2.73;;
75148;SDS011;63724;47.470;19.166;2023-04-23T15:18:58;5.38;;;2.28;;
75148;SDS011;63724;47.470;19.166;2023-04-23T15:22:04;4.03;;;2.90;;
75148;SDS011;63724;47.470;19.166;2023-04-23T15:25:06;4.30;;;2.53;;
75148;SDS011;63724;47.470;19.166;2023-04-23T15:28:09;5.53;;;2.63;;
75148;SDS011;63724;47.470;19.166;2023-04-23T15:31:11;5.40;;;3.07;;
75148;SDS011;63724;47.470;19.166;2023-04-23T15:34:13;4.68;;;2.78;;
75148;SDS011;63724;47.470;19.166;2023-04-23T15:37:16;4.40;;;2.80;;
75148;SDS011;63724;47.470;19.166;2023-04-23T15:40:20;4.93;;;3.00;;
75148;SDS011;63724;47.470;19.166;2023-04-23T15:43:23;4.97;;;3.20;;
75148;SDS011;63724;47.470;19.166;2023-04-23T15:46:25;8.50;;;3.10;;
75148;SDS011;63724;47.470;19.166;2023-04-23T15:49:28;11.95;;;3.40;;
75148;SDS011;63724;47.470;19.166;2023-04-23T15:52:30;3.17;;;2.65;;
75148;SDS011;63724;47.470;19.166;2023-04-23T15:55:33;4.60;;;2.70;;
75148;SDS011;63724;47.470;19.166;2023-04-23T15:58:35;3.10;;;2.80;;
75148;SDS011;63724;47.470;19.166;2023-04-23T16:01:37;2.93;;;2.60;;
75148;SDS011;63724;47.470;19.166;2023-04-23T16:04:40;3.42;;;2.63;;
75148;SDS011;63724;47.470;19.166;2023-04-23T16:07:43;6.25;;;2.97;;
75148;SDS011;63724;47.470;19.166;2023-04-23T16:10:45;3.55;;;2.70;;
75148;SDS011;63724;47.470;19.166;2023-04-23T16:13:47;6.50;;;3.00;;
75148;SDS011;63724;47.470;19.166;2023-04-23T16:16:50;4.23;;;3.00;;
75148;SDS011;63724;47.470;19.166;2023-04-23T16:19:52;3.20;;;2.53;;
75148;SDS011;63724;47.470;19.166;2023-04-23T16:22:55;4.78;;;2.95;;
75148;SDS011;63724;47.470;19.166;2023-04-23T16:25:57;4.88;;;2.90;;
75148;SDS011;63724;47.470;19.166;2023-04-23T16:29:02;3.90;;;2.93;;
75148;SDS011;63724;47.470;19.166;2023-04-23T16:32:21;2.80;;;2.37;;
75148;SDS011;63724;47.470;19.166;2023-04-23T16:35:24;4.05;;;2.90;;
75148;SDS011;63724;47.470;19.166;2023-04-23T16:38:26;5.00;;;2.83;;
75148;SDS011;63724;47.470;19.166;2023-04-23T16:41:29;6.88;;;2.90;;
75148;SDS011;63724;47.470;19.166;2023-04-23T16:44:32;6.07;;;2.80;;
75148;SDS011;63724;47.470;19.166;2023-04-23T16:47:34;4.10;;;2.57;;
75148;SDS011;63724;47.470;19.166;2023-04-23T16:50:37;5.43;;;2.80;;
75148;SDS011;63724;47.470;19.166;2023-04-23T16:53:39;6.85;;;2.60;;
75148;SDS011;63724;47.470;19.166;2023-04-23T16:56:42;4.72;;;2.53;;
75148;SDS011;63724;47.470;19.166;2023-04-23T16:59:46;3.63;;;2.70;;
75148;SDS011;63724;47.470;19.166;2023-04-23T17:02:48;4.77;;;2.83;;
75148;SDS011;63724;47.470;19.166;2023-04-23T17:05:54;3.67;;;2.90;;
75148;SDS011;63724;47.470;19.166;2023-04-23T17:09:20;6.07;;;3.22;;
75148;SDS011;63724;47.470;19.166;2023-04-23T17:12:22;7.03;;;2.70;;
75148;SDS011;63724;47.470;19.166;2023-04-23T17:15:25;6.20;;;2.87;;
75148;SDS011;63724;47.470;19.166;2023-04-23T17:18:28;6.70;;;2.90;;
75148;SDS011;63724;47.470;19.166;2023-04-23T17:21:30;4.75;;;3.00;;
75148;SDS011;63724;47.470;19.166;2023-04-23T17:24:33;6.35;;;3.35;;
75148;SDS011;63724;47.470;19.166;2023-04-23T17:27:37;5.32;;;2.90;;
75148;SDS011;63724;47.470;19.166;2023-04-23T17:30:40;4.97;;;3.00;;
75148;SDS011;63724;47.470;19.166;2023-04-23T17:33:42;4.13;;;3.20;;
75148;SDS011;63724;47.470;19.166;2023-04-23T17:36:46;5.13;;;2.90;;
75148;SDS011;63724;47.470;19.166;2023-04-23T17:39:49;5.10;;;2.83;;
75148;SDS011;63724;47.470;19.166;2023-04-23T17:42:51;8.52;;;3.47;;
75148;SDS011;63724;47.470;19.166;2023-04-23T17:45:54;8.03;;;2.90;;
75148;SDS011;63724;47.470;19.166;2023-04-23T17:48:56;4.03;;;2.90;;
75148;SDS011;63724;47.470;19.166;2023-04-23T17:51:59;5.45;;;3.05;;
75148;SDS011;63724;47.470;19.166;2023-04-23T17:55:01;6.53;;;3.50;;
75148;SDS011;63724;47.470;19.166;2023-04-23T17:58:04;5.15;;;3.30;;
75148;SDS011;63724;47.470;19.166;2023-04-23T18:01:07;9.00;;;3.10;;
75148;SDS011;63724;47.470;19.166;2023-04-23T18:04:10;4.37;;;2.73;;
75148;SDS011;63724;47.470;19.166;2023-04-23T18:07:16;6.30;;;3.60;;
75148;SDS011;63724;47.470;19.166;2023-04-23T18:10:18;6.78;;;3.72;;
75148;SDS011;63724;47.470;19.166;2023-04-23T18:13:20;10.82;;;3.63;;
75148;SDS011;63724;47.470;19.166;2023-04-23T18:16:23;14.23;;;5.43;;
75148;SDS011;63724;47.470;19.166;2023-04-23T18:19:26;6.93;;;4.10;;